createdAt,value
2023-01-03T00:01:08.780Z,3.27
2023-01-03T00:03:37.959Z,3.16
2023-01-03T00:06:17.814Z,3.19
2023-01-03T00:08:47.465Z,3.12
2023-01-03T00:11:18.947Z,3.05
2023-01-03T00:13:46.984Z,3.04
2023-01-03T00:16:20.302Z,2.89
2023-01-03T00:18:49.381Z,2.90
2023-01-03T00:21:20.052Z,2.81
2023-01-03T00:23:49.116Z,2.80
2023-01-03T00:26:18.772Z,2.89
2023-01-03T00:28:48.117Z,2.94
2023-01-03T00:31:17.375Z,2.87
2023-01-03T00:33:46.612Z,2.88
2023-01-03T00:36:15.808Z,2.85
2023-01-03T00:38:46.594Z,2.91
2023-01-03T00:41:18.433Z,2.95
2023-01-03T00:43:49.422Z,2.98
2023-01-03T00:46:20.769Z,2.98
2023-01-03T00:48:49.980Z,3.00
2023-01-03T00:51:20.781Z,3.01
2023-01-03T00:53:53.173Z,2.98
2023-01-03T00:56:23.948Z,2.96
2023-01-03T00:58:53.480Z,2.91
2023-01-03T01:01:24.203Z,2.89
2023-01-03T01:03:56.371Z,2.84
2023-01-03T01:06:28.349Z,2.85
2023-01-03T01:09:01.230Z,2.81
2023-01-03T01:11:31.025Z,2.77
2023-01-03T01:14:00.231Z,2.60
2023-01-03T01:16:31.502Z,2.63
2023-01-03T01:19:01.883Z,2.60
2023-01-03T01:21:32.884Z,2.58
2023-01-03T01:24:03.319Z,2.55
2023-01-03T01:26:32.431Z,2.50
2023-01-03T01:29:01.511Z,2.51
2023-01-03T01:31:30.975Z,2.46
2023-01-03T01:34:00.433Z,2.48
2023-01-03T01:36:32.267Z,2.47
2023-01-03T01:39:05.004Z,2.50
2023-01-03T01:41:55.000Z,2.46
2023-01-03T01:44:49.064Z,2.39
2023-01-03T01:47:26.066Z,2.31
2023-01-03T01:50:03.043Z,2.33
2023-01-03T01:52:34.365Z,2.35
2023-01-03T01:55:07.808Z,2.35
2023-01-03T01:57:39.432Z,2.25
2023-01-03T02:00:11.254Z,2.31
2023-01-03T02:02:48.355Z,2.41
2023-01-03T02:05:19.883Z,2.33
2023-01-03T02:07:50.959Z,2.30
2023-01-03T02:10:26.875Z,2.20
2023-01-03T02:13:12.881Z,2.21
2023-01-03T02:16:02.523Z,2.21
2023-01-03T02:18:44.483Z,2.04
2023-01-03T02:21:57.130Z,2.03
2023-01-03T02:24:45.665Z,2.03
2023-01-03T02:27:47.513Z,1.97
2023-01-03T02:30:34.656Z,1.97
2023-01-03T02:33:17.152Z,1.87
2023-01-03T02:35:56.804Z,1.89
2023-01-03T02:38:37.935Z,1.85
2023-01-03T02:41:17.152Z,1.76
2023-01-03T02:43:55.456Z,1.85
2023-01-03T02:46:31.931Z,1.80
2023-01-03T02:49:06.018Z,1.85
2023-01-03T02:51:39.103Z,1.89
2023-01-03T02:54:14.188Z,1.80
2023-01-03T02:56:50.211Z,1.79
2023-01-03T02:59:25.888Z,1.83
2023-01-03T03:01:56.953Z,1.80
2023-01-03T03:04:26.859Z,1.73
2023-01-03T03:07:03.430Z,1.75
2023-01-03T03:09:32.525Z,1.72
2023-01-03T03:12:20.520Z,1.69
2023-01-03T03:14:52.814Z,1.73
2023-01-03T03:17:30.589Z,1.64
2023-01-03T03:20:17.165Z,1.60
2023-01-03T03:23:05.960Z,1.61
2023-01-03T03:25:42.049Z,1.64
2023-01-03T03:28:36.290Z,1.68
2023-01-03T03:31:10.238Z,1.49
2023-01-03T03:33:45.578Z,1.59
2023-01-03T03:36:21.233Z,1.58
2023-01-03T03:38:50.750Z,1.61
2023-01-03T03:41:41.590Z,1.60
2023-01-03T03:44:37.919Z,1.64
2023-01-03T03:47:16.142Z,1.60
2023-01-03T03:49:50.997Z,1.65
2023-01-03T03:52:26.644Z,1.63
2023-01-03T03:55:00.976Z,1.62
2023-01-03T03:57:37.548Z,1.54
2023-01-03T04:00:10.590Z,1.51
2023-01-03T04:02:43.932Z,1.53
2023-01-03T04:05:17.355Z,1.57
2023-01-03T04:07:46.883Z,1.50
2023-01-03T04:10:20.539Z,1.54
2023-01-03T04:12:50.294Z,1.52
2023-01-03T04:15:19.991Z,1.45
2023-01-03T04:17:49.100Z,1.51
2023-01-03T04:20:20.382Z,1.30
2023-01-03T04:22:49.487Z,1.23
2023-01-03T04:25:18.756Z,1.34
2023-01-03T04:27:47.827Z,1.37
2023-01-03T04:30:17.095Z,1.32
2023-01-03T04:32:46.384Z,1.30
2023-01-03T04:35:15.500Z,1.37
2023-01-03T04:37:46.180Z,1.39
2023-01-03T04:40:15.278Z,1.30
2023-01-03T04:43:01.876Z,1.31
2023-01-03T04:45:31.200Z,1.33
2023-01-03T04:48:00.249Z,1.32
2023-01-03T04:50:30.530Z,1.36
2023-01-03T04:53:01.305Z,1.16
2023-01-03T04:55:30.410Z,1.14
2023-01-03T04:57:59.532Z,1.11
2023-01-03T05:00:28.754Z,1.14
2023-01-03T05:02:57.859Z,1.22
2023-01-03T05:05:27.054Z,1.18
2023-01-03T05:07:56.112Z,1.06
2023-01-03T05:10:26.691Z,1.07
2023-01-03T05:13:01.167Z,1.18
2023-01-03T05:15:30.858Z,1.18
2023-01-03T05:18:00.148Z,1.13
2023-01-03T05:20:46.713Z,1.13
2023-01-03T05:23:34.625Z,1.17
2023-01-03T05:26:09.692Z,1.17
2023-01-03T05:28:39.398Z,1.10
2023-01-03T05:31:08.536Z,0.99
2023-01-03T05:33:39.672Z,1.05
2023-01-03T05:36:10.236Z,0.94
2023-01-03T05:38:39.720Z,0.95
2023-01-03T05:41:10.832Z,1.00
2023-01-03T05:43:39.962Z,0.99
2023-01-03T05:46:09.089Z,0.95
2023-01-03T05:48:38.407Z,0.93
2023-01-03T05:51:07.619Z,0.96
2023-01-03T05:53:36.737Z,0.91
2023-01-03T05:56:06.972Z,0.88
2023-01-03T05:58:37.901Z,0.90
2023-01-03T06:01:10.341Z,0.91
2023-01-03T06:03:39.626Z,0.86
2023-01-03T06:06:10.867Z,0.88
2023-01-03T06:08:40.769Z,0.63
2023-01-03T06:11:11.548Z,0.47
2023-01-03T06:13:42.940Z,0.47
2023-01-03T06:16:32.829Z,0.51
2023-01-03T06:19:02.815Z,0.63
2023-01-03T06:21:32.076Z,0.61
2023-01-03T06:24:01.463Z,0.64
2023-01-03T06:26:30.654Z,0.70
2023-01-03T06:29:01.404Z,0.73
2023-01-03T06:31:31.039Z,0.79
2023-01-03T06:34:00.326Z,0.84
2023-01-03T06:36:29.430Z,0.82
2023-01-03T06:39:00.027Z,0.90
2023-01-03T06:41:29.127Z,0.92
2023-01-03T06:43:58.672Z,0.99
2023-01-03T06:46:47.673Z,1.01
2023-01-03T06:49:35.386Z,1.04
2023-01-03T06:52:25.125Z,1.06
2023-01-03T06:54:55.831Z,1.15
2023-01-03T06:57:26.507Z,1.24
2023-01-03T06:59:56.649Z,1.35
2023-01-03T07:02:27.456Z,1.49
2023-01-03T07:04:56.706Z,1.58
2023-01-03T07:07:25.869Z,1.68
2023-01-03T07:09:55.086Z,1.61
2023-01-03T07:12:41.505Z,1.77
2023-01-03T07:15:12.218Z,1.74
2023-01-03T07:17:42.797Z,2.04
2023-01-03T07:20:12.343Z,2.23
2023-01-03T07:22:41.661Z,2.37
2023-01-03T07:25:11.505Z,2.51
2023-01-03T07:27:40.586Z,2.60
2023-01-03T07:30:11.364Z,2.66
2023-01-03T07:32:42.155Z,2.96
2023-01-03T07:35:11.610Z,3.21
2023-01-03T07:37:40.824Z,3.45
2023-01-03T07:40:11.282Z,3.68
2023-01-03T07:42:58.833Z,4.04
2023-01-03T07:45:28.115Z,4.43
2023-01-03T07:47:58.823Z,4.81
2023-01-03T07:50:28.081Z,5.18
2023-01-03T07:52:57.314Z,5.46
2023-01-03T07:55:26.593Z,5.81
2023-01-03T07:57:55.763Z,6.09
2023-01-03T08:00:25.126Z,6.38
2023-01-03T08:02:56.032Z,6.65
2023-01-03T08:05:27.152Z,6.97
2023-01-03T08:07:57.996Z,7.31
2023-01-03T08:10:44.336Z,7.58
2023-01-03T08:13:19.587Z,7.97
2023-01-03T08:16:11.871Z,8.24
2023-01-03T08:18:42.657Z,8.58
2023-01-03T08:21:15.582Z,8.97
2023-01-03T08:23:45.134Z,9.27
2023-01-03T08:26:16.364Z,9.34
2023-01-03T08:28:48.458Z,9.83
2023-01-03T08:31:22.609Z,9.95
2023-01-03T08:33:55.648Z,10.09
2023-01-03T08:36:29.112Z,10.28
2023-01-03T08:39:02.179Z,10.59
2023-01-03T08:41:33.261Z,10.74
2023-01-03T08:44:04.401Z,11.29
2023-01-03T08:46:35.632Z,11.56
2023-01-03T08:49:05.324Z,12.06
2023-01-03T08:51:36.028Z,12.44
2023-01-03T08:54:05.734Z,12.67
2023-01-03T08:56:35.642Z,12.41
2023-01-03T08:59:05.715Z,12.83
2023-01-03T09:01:35.042Z,13.12
2023-01-03T09:04:05.664Z,13.09
2023-01-03T09:06:36.394Z,13.14
2023-01-03T09:09:06.715Z,13.55
2023-01-03T09:11:36.122Z,13.65
2023-01-03T09:14:05.397Z,13.78
2023-01-03T09:16:34.683Z,14.08
2023-01-03T09:19:04.044Z,13.74
2023-01-03T09:21:33.403Z,14.26
2023-01-03T09:24:04.307Z,14.46
2023-01-03T09:26:33.635Z,14.35
2023-01-03T09:29:02.963Z,14.51
2023-01-03T09:31:34.902Z,14.70
2023-01-03T09:34:05.636Z,15.09
2023-01-03T09:36:38.652Z,15.01
2023-01-03T09:39:09.339Z,15.14
2023-01-03T09:41:40.843Z,14.99
2023-01-03T09:44:11.106Z,15.29
2023-01-03T09:46:40.393Z,15.35
2023-01-03T09:49:09.573Z,15.80
2023-01-03T09:52:05.177Z,15.95
2023-01-03T09:54:57.287Z,16.09
2023-01-03T09:57:46.351Z,15.91
2023-01-03T10:00:38.489Z,16.01
2023-01-03T10:03:51.620Z,16.26
2023-01-03T10:06:33.637Z,16.18
2023-01-03T10:09:21.708Z,15.65
2023-01-03T10:12:04.887Z,15.82
2023-01-03T10:14:47.827Z,15.70
2023-01-03T10:17:30.147Z,15.62
2023-01-03T10:20:14.875Z,15.36
2023-01-03T10:22:44.305Z,15.14
2023-01-03T10:25:15.051Z,14.68
2023-01-03T10:27:49.812Z,14.15
2023-01-03T10:30:21.586Z,14.04
2023-01-03T10:33:22.331Z,14.20
2023-01-03T10:35:52.418Z,14.22
2023-01-03T10:38:23.229Z,14.03
2023-01-03T10:40:54.735Z,14.00
2023-01-03T10:43:31.722Z,13.98
2023-01-03T10:46:03.187Z,13.81
2023-01-03T10:49:08.357Z,13.69
2023-01-03T10:51:42.268Z,13.79
2023-01-03T10:54:22.403Z,13.99
2023-01-03T10:56:51.806Z,13.88
2023-01-03T10:59:26.048Z,14.09
2023-01-03T11:02:00.660Z,14.08
2023-01-03T11:04:31.174Z,14.23
2023-01-03T11:07:16.255Z,14.21
2023-01-03T11:09:51.655Z,14.01
2023-01-03T11:12:29.245Z,14.28
2023-01-03T11:15:01.470Z,14.18
2023-01-03T11:17:33.060Z,14.27
2023-01-03T11:20:02.524Z,14.12
2023-01-03T11:22:42.046Z,14.17
2023-01-03T11:25:30.590Z,14.23
2023-01-03T11:28:20.139Z,14.31
2023-01-03T11:31:00.472Z,14.34
2023-01-03T11:33:55.216Z,14.26
2023-01-03T11:36:36.366Z,14.37
2023-01-03T11:39:26.291Z,14.43
2023-01-03T11:42:23.760Z,14.55
2023-01-03T11:45:20.122Z,14.52
2023-01-03T11:47:58.585Z,14.59
2023-01-03T11:50:39.723Z,14.61
2023-01-03T11:53:25.094Z,14.56
2023-01-03T11:56:08.549Z,14.61
2023-01-03T11:59:04.518Z,14.59
2023-01-03T12:01:49.361Z,14.56
2023-01-03T12:04:30.731Z,14.50
2023-01-03T12:10:10.913Z,14.36
2023-01-03T12:13:05.432Z,14.37
2023-01-03T12:15:44.932Z,14.35
2023-01-03T12:18:21.861Z,14.39
2023-01-03T12:20:58.674Z,14.45
2023-01-03T12:23:35.712Z,14.48
2023-01-03T12:26:09.008Z,14.48
2023-01-03T12:28:42.311Z,14.56
2023-01-03T12:31:27.898Z,14.48
2023-01-03T12:34:12.106Z,14.31
2023-01-03T12:36:48.690Z,14.22
2023-01-03T12:39:36.500Z,14.28
2023-01-03T12:42:14.089Z,14.30
2023-01-03T12:44:45.965Z,14.22
2023-01-03T12:47:27.103Z,14.31
2023-01-03T12:50:03.776Z,14.23
2023-01-03T12:52:37.684Z,14.22
2023-01-03T12:55:20.075Z,14.21
2023-01-03T12:58:07.453Z,14.36
2023-01-03T13:01:05.636Z,14.38
2023-01-03T13:03:40.494Z,14.38
2023-01-03T13:06:17.916Z,14.51
2023-01-03T13:08:52.998Z,14.51
2023-01-03T13:11:27.339Z,14.59
2023-01-03T13:14:00.275Z,14.66
2023-01-03T13:16:45.184Z,14.75
2023-01-03T13:19:56.906Z,14.74
2023-01-03T13:22:47.171Z,14.74
2023-01-03T13:25:40.203Z,14.85
2023-01-03T13:28:31.425Z,14.83
2023-01-03T13:31:47.792Z,14.85
2023-01-03T13:34:35.566Z,14.90
2023-01-03T13:37:18.335Z,15.35
2023-01-03T13:40:18.746Z,15.42
2023-01-03T13:42:49.592Z,15.54
2023-01-03T13:45:58.962Z,15.45
2023-01-03T13:48:41.202Z,15.35
2023-01-03T13:51:39.573Z,15.44
2023-01-03T13:54:28.313Z,15.29
2023-01-03T13:57:07.249Z,15.34
2023-01-03T14:00:03.790Z,15.16
2023-01-03T14:03:20.700Z,14.96
2023-01-03T14:06:22.153Z,14.87
2023-01-03T14:09:32.165Z,14.70
2023-01-03T14:12:42.772Z,14.55
2023-01-03T14:15:26.451Z,14.28
2023-01-03T14:17:59.693Z,14.06
2023-01-03T14:20:32.818Z,14.13
2023-01-03T14:23:17.057Z,14.19
2023-01-03T14:25:53.164Z,14.03
2023-01-03T14:28:25.371Z,14.02
2023-01-03T14:31:03.746Z,13.87
2023-01-03T14:33:38.530Z,13.95
2023-01-03T14:36:09.805Z,13.69
2023-01-03T14:38:39.013Z,13.61
2023-01-03T14:41:21.589Z,13.26
2023-01-03T14:43:50.921Z,13.13
2023-01-03T14:46:21.520Z,13.09
2023-01-03T14:48:50.758Z,12.89
2023-01-03T14:51:20.979Z,12.88
2023-01-03T14:53:51.729Z,12.79
2023-01-03T14:56:31.135Z,12.65
2023-01-03T14:59:02.468Z,12.64
2023-01-03T15:01:33.299Z,12.49
2023-01-03T15:04:04.356Z,12.51
2023-01-03T15:06:34.561Z,12.43
2023-01-03T15:09:20.263Z,12.43
2023-01-03T15:11:59.832Z,12.32
2023-01-03T15:14:30.982Z,12.18
2023-01-03T15:17:07.369Z,12.18
2023-01-03T15:19:40.807Z,12.02
2023-01-03T15:22:16.136Z,11.89
2023-01-03T15:24:47.579Z,11.86
2023-01-03T15:27:50.752Z,11.74
2023-01-03T15:30:26.951Z,11.57
2023-01-03T15:33:05.231Z,11.52
2023-01-03T15:35:39.609Z,11.39
2023-01-03T15:38:18.779Z,11.26
2023-01-03T15:40:50.951Z,11.16
2023-01-03T15:43:23.952Z,10.87
2023-01-03T15:46:03.719Z,10.97
2023-01-03T15:48:36.669Z,10.91
2023-01-03T15:51:07.224Z,10.85
2023-01-03T15:53:44.387Z,10.82
2023-01-03T15:56:20.306Z,10.81
2023-01-03T15:58:52.417Z,10.76
2023-01-03T16:01:24.301Z,10.75
2023-01-03T16:03:56.190Z,10.62
2023-01-03T16:06:25.730Z,10.57
2023-01-03T16:08:55.322Z,10.34
2023-01-03T16:11:33.738Z,10.36
2023-01-03T16:14:06.279Z,10.42
2023-01-03T16:16:39.904Z,10.45
2023-01-03T16:19:21.145Z,10.44
2023-01-03T16:22:09.459Z,10.37
2023-01-03T16:24:42.752Z,10.27
2023-01-03T16:27:17.942Z,10.25
2023-01-03T16:29:47.881Z,10.26
2023-01-03T16:32:23.706Z,10.23
2023-01-03T16:35:03.500Z,10.13
2023-01-03T16:37:35.171Z,10.07
2023-01-03T16:40:06.456Z,10.09
2023-01-03T16:42:36.425Z,10.00
2023-01-03T16:45:06.479Z,9.93
2023-01-03T16:47:39.457Z,9.89
2023-01-03T16:50:18.754Z,9.69
2023-01-03T16:52:52.589Z,9.72
2023-01-03T16:55:26.828Z,9.71
2023-01-03T16:57:56.980Z,9.69
2023-01-03T17:00:28.360Z,9.67
2023-01-03T17:03:00.345Z,9.64
2023-01-03T17:05:35.680Z,9.59
2023-01-03T17:08:08.100Z,9.56
2023-01-03T17:10:40.627Z,9.48
2023-01-03T17:13:26.322Z,9.38
2023-01-03T17:15:57.005Z,9.33
2023-01-03T17:18:31.025Z,9.32
2023-01-03T17:21:12.459Z,9.38
2023-01-03T17:23:44.605Z,9.32
2023-01-03T17:26:17.150Z,9.34
2023-01-03T17:28:47.975Z,9.32
2023-01-03T17:31:20.126Z,9.30
2023-01-03T17:33:50.148Z,9.28
2023-01-03T17:36:25.680Z,9.34
2023-01-03T17:39:00.461Z,9.34
2023-01-03T17:41:30.887Z,9.35
2023-01-03T17:44:03.453Z,9.32
2023-01-03T17:46:53.383Z,9.32
2023-01-03T17:49:29.941Z,9.34
2023-01-03T17:52:03.477Z,9.21
2023-01-03T17:54:38.147Z,9.23
2023-01-03T17:57:08.593Z,9.23
2023-01-03T17:59:38.316Z,9.22
2023-01-03T18:02:19.268Z,9.23
2023-01-03T18:05:15.113Z,9.02
2023-01-03T18:07:41.413Z,8.94
2023-01-03T18:10:16.779Z,8.99
2023-01-03T18:12:50.024Z,8.97
2023-01-03T18:15:22.252Z,8.92
2023-01-03T18:17:55.433Z,8.92
2023-01-03T18:20:28.415Z,8.83
2023-01-03T18:23:00.570Z,8.81
2023-01-03T18:25:30.475Z,8.80
2023-01-03T18:28:03.767Z,8.77
2023-01-03T18:30:33.278Z,8.81
2023-01-03T18:33:02.701Z,8.80
2023-01-03T18:35:38.829Z,8.67
2023-01-03T18:38:20.517Z,8.72
2023-01-03T18:40:51.611Z,8.65
2023-01-03T18:43:24.033Z,8.61
2023-01-03T18:45:53.800Z,8.59
2023-01-03T18:48:30.533Z,8.56
2023-01-03T18:51:05.896Z,8.52
2023-01-03T18:53:44.521Z,8.45
2023-01-03T18:56:36.488Z,8.47
2023-01-03T18:59:15.879Z,8.40
2023-01-03T19:01:45.426Z,8.38
2023-01-03T19:04:14.922Z,8.33
2023-01-03T19:06:49.762Z,8.29
2023-01-03T19:09:26.852Z,8.26
2023-01-03T19:11:59.431Z,8.34
2023-01-03T19:14:32.476Z,8.35
2023-01-03T19:17:11.483Z,8.36
2023-01-03T19:19:42.843Z,8.40
2023-01-03T19:22:24.397Z,8.43
2023-01-03T19:25:00.446Z,8.46
2023-01-03T19:27:41.874Z,8.47
2023-01-03T19:30:23.093Z,8.50
2023-01-03T19:32:58.498Z,8.48
2023-01-03T19:35:34.758Z,8.51
2023-01-03T19:38:09.723Z,8.46
2023-01-03T19:40:51.148Z,8.48
2023-01-03T19:43:27.635Z,8.60
2023-01-03T19:45:59.035Z,8.57
2023-01-03T19:48:37.700Z,8.59
2023-01-03T19:51:11.807Z,8.65
2023-01-03T19:53:44.158Z,8.44
2023-01-03T19:56:26.252Z,8.54
2023-01-03T19:59:02.739Z,8.58
2023-01-03T20:02:14.280Z,8.61
2023-01-03T20:04:32.133Z,8.63
2023-01-03T20:07:20.995Z,8.59
2023-01-03T20:09:51.411Z,8.57
2023-01-03T20:12:28.569Z,8.61
2023-01-03T20:15:04.586Z,8.62
2023-01-03T20:17:39.150Z,8.60
2023-01-03T20:20:12.716Z,8.55
2023-01-03T20:25:39.962Z,8.51
2023-01-03T20:28:24.394Z,8.49
2023-01-03T20:30:56.894Z,8.40
2023-01-03T20:33:28.628Z,8.34
2023-01-03T20:36:12.676Z,8.28
2023-01-03T20:38:49.269Z,8.19
2023-01-03T20:41:22.536Z,8.15
2023-01-03T20:43:56.332Z,8.08
2023-01-03T20:46:30.139Z,8.06
2023-01-03T20:49:02.442Z,8.05
2023-01-03T20:51:32.599Z,8.01
2023-01-03T20:54:07.245Z,7.97
2023-01-03T20:56:41.712Z,7.95
2023-01-03T20:59:16.749Z,7.96
2023-01-03T21:01:48.221Z,8.06
2023-01-03T21:04:19.039Z,7.99
2023-01-03T21:06:49.014Z,8.05
2023-01-03T21:09:18.451Z,8.05
2023-01-03T21:11:49.132Z,8.09
2023-01-03T21:14:19.896Z,8.11
2023-01-03T21:16:50.105Z,8.10
2023-01-03T21:19:21.462Z,8.15
2023-01-03T21:21:53.335Z,8.16
2023-01-03T21:24:25.240Z,8.14
2023-01-03T21:26:54.658Z,8.12
2023-01-03T21:29:25.336Z,8.12
2023-01-03T21:31:59.384Z,8.12
2023-01-03T21:34:28.678Z,8.16
2023-01-03T21:36:58.260Z,8.20
2023-01-03T21:39:30.321Z,8.24
2023-01-03T21:42:16.575Z,8.25
2023-01-03T21:44:47.207Z,8.25
2023-01-03T21:47:16.355Z,8.28
2023-01-03T21:49:45.509Z,8.24
2023-01-03T21:52:14.695Z,8.27
2023-01-03T21:54:43.789Z,8.29
2023-01-03T21:57:17.695Z,8.25
2023-01-03T21:59:51.853Z,8.11
2023-01-03T22:02:38.359Z,7.90
2023-01-03T22:05:08.069Z,7.95
2023-01-03T22:07:37.348Z,7.85
2023-01-03T22:10:20.196Z,7.81
2023-01-03T22:12:51.502Z,7.77
2023-01-03T22:15:22.693Z,7.81
2023-01-03T22:17:51.969Z,7.84
2023-01-03T22:20:23.384Z,7.88
2023-01-03T22:22:53.574Z,7.98
2023-01-03T22:25:25.031Z,8.13
2023-01-03T22:27:57.529Z,8.13
2023-01-03T22:30:28.756Z,8.18
2023-01-03T22:32:58.797Z,8.30
2023-01-03T22:35:28.125Z,8.30
2023-01-03T22:37:57.514Z,8.34
2023-01-03T22:40:26.669Z,8.37
2023-01-03T22:42:56.353Z,8.38
2023-01-03T22:45:25.472Z,8.38
2023-01-03T22:47:56.296Z,8.40
2023-01-03T22:50:25.768Z,8.44
2023-01-03T22:52:55.155Z,8.43
2023-01-03T22:55:28.332Z,8.41
2023-01-03T22:58:01.779Z,8.43
2023-01-03T23:00:31.019Z,8.43
2023-01-03T23:03:03.443Z,8.48
2023-01-03T23:05:32.659Z,8.47
2023-01-03T23:08:01.948Z,8.44
2023-01-03T23:10:31.286Z,8.44
2023-01-03T23:12:59.458Z,8.42
2023-01-03T23:15:33.784Z,8.42
2023-01-03T23:18:04.232Z,8.38
2023-01-03T23:20:35.575Z,8.34
2023-01-03T23:23:05.934Z,8.28
2023-01-03T23:25:37.114Z,8.26
2023-01-03T23:28:06.512Z,8.27
2023-01-03T23:30:46.117Z,8.25
2023-01-03T23:33:16.674Z,8.22
2023-01-03T23:35:45.840Z,8.19
2023-01-03T23:38:14.902Z,8.20
2023-01-03T23:40:44.700Z,8.21
2023-01-03T23:43:13.969Z,8.26
2023-01-03T23:45:43.102Z,8.28
2023-01-03T23:48:12.171Z,8.34
2023-01-03T23:50:42.844Z,8.31
2023-01-03T23:53:11.829Z,8.32
2023-01-03T23:55:40.889Z,8.32
2023-01-03T23:58:10.228Z,8.32
